Pleasant Valley, Arkansas
Current Conditions -  °F | °C
As of 9:58 AM on Friday 28 Nov 2014 (Local Time) from KLRF Reporting Station
Clear Clear  
Wind Chill: 36°   Ceiling: Unl
Heat Index: 42°   Visibility: 10mi
Dew Point: 32°   Wind: 9mph
Humidity: 69%   Direction: 190°S
Pressure: 30.35"   Gusts: NA
Location:  35.2494°N, 92.313°W
Report Text: KLRF 281558Z AUTO 19008KT 10SM CLR 06/00 A3035 RMK AO2 SLP283 T00550002 $
Loading
Personal Weather Stations






























Interactive Weather Map New forecast layout! Learn more

10-Day Weather Forecast

Advertisements
Track Severe Weather on mobile